Cincinnati, OH (45205)

11:59 PM EDT on August 26, 2016 (GMT -0400)
Covedale - Green Township, Cincinnati, OH | | Change Station

Elev 892 ft 39.12 °N, 84.62 °W | Updated 23 seconds ago

Mostly Cloudy
Mostly Cloudy
72.3 °F
Feels Like 72.3 °F
N
0.0
Wind Variable Wind from ESE
Gusts 0.0 mph

Today
High -- | Low -- °F
--% Chance of Precip.
Yesterday
High -- | Low -- °F
Precip. -- in
Pressure 30.08 in
Visibility 10.0 miles
Clouds Mostly Cloudy 25000 ft
Dew Point 71 °F
Humidity 97%
Rainfall 0.56 in
Snow Depth Not available.
7:02 AM 8:17 PM
Waning Crescent, 28% visible
METAR KCVG 270352Z 01003KT 10SM BKN250 24/22 A3012 RMK AO2 SLP186 T02440217
Pressure 30.08 in
Visibility 10.0 miles
Clouds Mostly Cloudy 25000 ft
Dew Point 71 °F
Humidity 97%
Rainfall 0.56 in
Snow Depth Not available.
7:02 AM 8:17 PM
Waning Crescent, 28% visible
METAR KCVG 270352Z 01003KT 10SM BKN250 24/22 A3012 RMK AO2 SLP186 T02440217

10-Day Weather Forecast

Almanac

Astronomy

Aug. 26, 2016 Rise Set
Actual Time
Civil Twilight
Nautical Twilight
Astronomical Twilight
Moon
Length of Visible Light
Length of Day
Tomorrow will be .
, % of the Moon is Illuminated

Today's Extremes

State Highs State Lows

Community

WunderPhotos

Upload Photos

1,935,290 photos uploaded!

WunderBlog® & News

Nearby

Air Quality

  Air Quality AQ Index Pollutant
Not available.

Snow Depth

Station Depth Elevation

Earthquake Activity

City Distance Mag. Time & Date
Minimum magnitude displayed is 2.5.

Coastal Water Temperatures

Place Temperature

Stations

Nearby Weather Stations

Station Location Temp. Windchill Dew Point Humidity Wind Precip. Elev Updated Type
                   

Watches & Warnings

There are currently no watches in effect.